Hesperides — EANN — position and weather

sailwx.info

Track history (hours):
 
Tides and Currents Weather Stations Pressure Air Temp Water Temp Dewpoint Dewpoint Depression Visibility Wind Speed Wind Dir Waves Ship Positions

Hesperides

Last reported at 2015-Jul-31 07:25 UTC. Time now 2015-Jul-31 09:20 UTC.
Position N 28°27' W 013°50'.

Length 122 m; draft 7.3 m.

Type: Tanker. MMSI: 224462000.

Date/timePositionNaut miles runAvg speedWind from/ knotsBaromVisibWave heightAir tempDewpointWater temp
2015-Jul-31 07:25N 28°27' W 013°50'12 9.4
2015-Jul-31 06:06N 28°15' W 013°52'5 9.9
2015-Jul-31 05:33N 28°11' W 013°57'1110.9
2015-Jul-31 04:31N 28°06' W 014°08'1010.8
2015-Jul-31 03:33N 28°01' W 014°19'1111.1
2015-Jul-31 02:33N 27°58' W 014°31'1110.6
2015-Jul-31 01:33N 27°55' W 014°42'1010.4
2015-Jul-31 00:33N 27°50' W 014°53'9 9.3
2015-Jul-30 23:33N 27°48' W 015°03'1110.8
2015-Jul-30 22:33N 27°53' W 015°14'9 9.2
2015-Jul-30 21:32N 27°59' W 015°23'41 1.3
2015-Jul-29 13:15N 28°23' W 016°00'7 9.8
2015-Jul-29 12:33N 28°26' W 016°07'6 6.3
2015-Jul-29 11:33N 28°29' W 016°13'0 0.0
2015-Jul-28 21:28N 28°29' W 016°13'1 0.5
2015-Jul-28 20:19N 28°29' W 016°13'0 0.0
2015-Jul-28 19:22N 28°29' W 016°13'0 0.0
2015-Jul-28 18:25N 28°29' W 016°13'0 0.0
2015-Jul-28 16:25N 28°29' W 016°13'0 0.0
2015-Jul-28 15:25N 28°29' W 016°13'0 0.1
2015-Jul-28 14:25N 28°29' W 016°13'0 0.0
2015-Jul-28 13:28N 28°29' W 016°13'0 0.0
2015-Jul-28 12:28N 28°29' W 016°13'0 0.0
2015-Jul-28 11:13N 28°29' W 016°13'0 0.0
2015-Jul-28 10:28N 28°29' W 016°13'0 0.0
2015-Jul-28 09:31N 28°29' W 016°13'0 0.0
2015-Jul-28 08:31N 28°29' W 016°13'0 0.0
2015-Jul-28 07:31N 28°29' W 016°13'0 0.0
2015-Jul-28 06:31N 28°29' W 016°13'0 0.0
2015-Jul-28 05:31N 28°29' W 016°13'0 0.0
2015-Jul-28 04:31N 28°29' W 016°13'0 0.0
2015-Jul-28 01:19N 28°29' W 016°13'0 0.0
2015-Jul-28 00:19N 28°29' W 016°13'0 0.0
2015-Jul-27 23:31N 28°29' W 016°13'0 0.0
2015-Jul-27 22:22N 28°29' W 016°13'0 0.0
2015-Jul-27 21:22N 28°29' W 016°13'0 0.0
2015-Jul-27 17:22N 28°29' W 016°13'0 0.0
2015-Jul-27 15:28N 28°29' W 016°13'0 0.0
2015-Jul-27 13:28N 28°29' W 016°13'  
2015-Jul-24 16:24N 28°29' W 016°13'0 0.0
2015-Jul-24 15:20N 28°29' W 016°13'0 0.0
2015-Jul-24 14:23N 28°29' W 016°13'0 0.0
2015-Jul-24 13:26N 28°29' W 016°13'0 0.0
2015-Jul-24 11:26N 28°29' W 016°13'0 0.0
2015-Jul-24 10:26N 28°29' W 016°13'0 0.0
2015-Jul-24 09:29N 28°29' W 016°13'0 0.0
2015-Jul-24 08:29N 28°29' W 016°13'0 0.4
2015-Jul-24 07:33N 28°29' W 016°13'0 0.0
2015-Jul-23 10:06N 28°29' W 016°13'2 4.1
2015-Jul-23 09:33N 28°27' W 016°12'10 9.8
2015-Jul-23 08:33N 28°22' W 016°03'1110.6
2015-Jul-23 07:33N 28°15' W 015°53'1111.2
2015-Jul-23 06:33N 28°15' W 015°41'1212.1
2015-Jul-23 05:33N 28°18' W 015°27'8 8.4
2015-Jul-23 04:33N 28°11' W 015°21'1010.2
2015-Jul-23 03:33N 28°01' W 015°20'3 3.3
2015-Jul-23 02:33N 27°59' W 015°23'0 0.0
2015-Jul-22 20:33N 27°59' W 015°23'0 0.0
2015-Jul-22 19:33N 27°59' W 015°23'0 0.0
2015-Jul-22 18:33N 27°59' W 015°23'0 0.0
2015-Jul-22 17:33N 27°59' W 015°23'0 0.0
2015-Jul-22 16:33N 27°59' W 015°23'0 0.0
2015-Jul-22 15:33N 27°59' W 015°23'0 0.0
2015-Jul-22 14:33N 27°59' W 015°23'0 0.0
2015-Jul-22 13:33N 27°59' W 015°23'0 0.0
2015-Jul-22 12:33N 27°59' W 015°23'0 0.0
2015-Jul-22 11:33N 27°59' W 015°23'0 0.0
2015-Jul-22 10:33N 27°59' W 015°23'0 0.0
2015-Jul-22 09:33N 27°59' W 015°23'0 0.0
2015-Jul-22 08:33N 27°59' W 015°23'3 3.2
2015-Jul-22 07:33N 28°01' W 015°21'8 8.2
2015-Jul-22 06:33N 28°08' W 015°25'0 0.0
2015-Jul-21 10:18N 28°08' W 015°25'2 2.2
2015-Jul-21 09:33N 28°07' W 015°24'8 8.4
2015-Jul-21 08:33N 28°15' W 015°28'1010.2
2015-Jul-21 07:33N 28°18' W 015°39'  
Track history (hours):
 
Tides and Currents Weather Stations Pressure Air Temp Water Temp Dewpoint Dewpoint Depression Visibility Wind Speed Wind Dir Waves Ship Positions

Hesperides

Last reported at 2015-Jul-31 07:25 UTC. Time now 2015-Jul-31 09:20 UTC.
Position N 28°27' W 013°50'.

Length 122 m; draft 7.3 m.

Type: Tanker. MMSI: 224462000.

Date/timePositionNaut miles runAvg speedWind from/ knotsBaromVisibWave heightAir tempDewpointWater temp
2015-Jul-31 07:25N 28°27' W 013°50'12 9.4
2015-Jul-31 06:06N 28°15' W 013°52'5 9.9
2015-Jul-31 05:33N 28°11' W 013°57'1110.9
2015-Jul-31 04:31N 28°06' W 014°08'1010.8
2015-Jul-31 03:33N 28°01' W 014°19'1111.1
2015-Jul-31 02:33N 27°58' W 014°31'1110.6
2015-Jul-31 01:33N 27°55' W 014°42'1010.4
2015-Jul-31 00:33N 27°50' W 014°53'9 9.3
2015-Jul-30 23:33N 27°48' W 015°03'1110.8
2015-Jul-30 22:33N 27°53' W 015°14'9 9.2
2015-Jul-30 21:32N 27°59' W 015°23'41 1.3
2015-Jul-29 13:15N 28°23' W 016°00'7 9.8
2015-Jul-29 12:33N 28°26' W 016°07'6 6.3
2015-Jul-29 11:33N 28°29' W 016°13'0 0.0
2015-Jul-28 21:28N 28°29' W 016°13'1 0.5
2015-Jul-28 20:19N 28°29' W 016°13'0 0.0
2015-Jul-28 19:22N 28°29' W 016°13'0 0.0
2015-Jul-28 18:25N 28°29' W 016°13'0 0.0
2015-Jul-28 16:25N 28°29' W 016°13'0 0.0
2015-Jul-28 15:25N 28°29' W 016°13'0 0.1
2015-Jul-28 14:25N 28°29' W 016°13'0 0.0
2015-Jul-28 13:28N 28°29' W 016°13'0 0.0
2015-Jul-28 12:28N 28°29' W 016°13'0 0.0
2015-Jul-28 11:13N 28°29' W 016°13'0 0.0
2015-Jul-28 10:28N 28°29' W 016°13'0 0.0
2015-Jul-28 09:31N 28°29' W 016°13'0 0.0
2015-Jul-28 08:31N 28°29' W 016°13'0 0.0
2015-Jul-28 07:31N 28°29' W 016°13'0 0.0
2015-Jul-28 06:31N 28°29' W 016°13'0 0.0
2015-Jul-28 05:31N 28°29' W 016°13'0 0.0
2015-Jul-28 04:31N 28°29' W 016°13'0 0.0
2015-Jul-28 01:19N 28°29' W 016°13'0 0.0
2015-Jul-28 00:19N 28°29' W 016°13'0 0.0
2015-Jul-27 23:31N 28°29' W 016°13'0 0.0
2015-Jul-27 22:22N 28°29' W 016°13'0 0.0
2015-Jul-27 21:22N 28°29' W 016°13'0 0.0
2015-Jul-27 17:22N 28°29' W 016°13'0 0.0
2015-Jul-27 15:28N 28°29' W 016°13'0 0.0
2015-Jul-27 13:28N 28°29' W 016°13'  
2015-Jul-24 16:24N 28°29' W 016°13'0 0.0
2015-Jul-24 15:20N 28°29' W 016°13'0 0.0
2015-Jul-24 14:23N 28°29' W 016°13'0 0.0
2015-Jul-24 13:26N 28°29' W 016°13'0 0.0
2015-Jul-24 11:26N 28°29' W 016°13'0 0.0
2015-Jul-24 10:26N 28°29' W 016°13'0 0.0
2015-Jul-24 09:29N 28°29' W 016°13'0 0.0
2015-Jul-24 08:29N 28°29' W 016°13'0 0.4
2015-Jul-24 07:33N 28°29' W 016°13'0 0.0
2015-Jul-23 10:06N 28°29' W 016°13'2 4.1
2015-Jul-23 09:33N 28°27' W 016°12'10 9.8
2015-Jul-23 08:33N 28°22' W 016°03'1110.6
2015-Jul-23 07:33N 28°15' W 015°53'1111.2
2015-Jul-23 06:33N 28°15' W 015°41'1212.1
2015-Jul-23 05:33N 28°18' W 015°27'8 8.4
2015-Jul-23 04:33N 28°11' W 015°21'1010.2
2015-Jul-23 03:33N 28°01' W 015°20'3 3.3
2015-Jul-23 02:33N 27°59' W 015°23'0 0.0
2015-Jul-22 20:33N 27°59' W 015°23'0 0.0
2015-Jul-22 19:33N 27°59' W 015°23'0 0.0
2015-Jul-22 18:33N 27°59' W 015°23'0 0.0
2015-Jul-22 17:33N 27°59' W 015°23'0 0.0
2015-Jul-22 16:33N 27°59' W 015°23'0 0.0
2015-Jul-22 15:33N 27°59' W 015°23'0 0.0
2015-Jul-22 14:33N 27°59' W 015°23'0 0.0
2015-Jul-22 13:33N 27°59' W 015°23'0 0.0
2015-Jul-22 12:33N 27°59' W 015°23'0 0.0
2015-Jul-22 11:33N 27°59' W 015°23'0 0.0
2015-Jul-22 10:33N 27°59' W 015°23'0 0.0
2015-Jul-22 09:33N 27°59' W 015°23'0 0.0
2015-Jul-22 08:33N 27°59' W 015°23'3 3.2
2015-Jul-22 07:33N 28°01' W 015°21'8 8.2
2015-Jul-22 06:33N 28°08' W 015°25'0 0.0
2015-Jul-21 10:18N 28°08' W 015°25'2 2.2
2015-Jul-21 09:33N 28°07' W 015°24'8 8.4
2015-Jul-21 08:33N 28°15' W 015°28'1010.2
2015-Jul-21 07:33N 28°18' W 015°39'  

Dump ship's entire track history